createdAt,value
2018-09-14T00:00:26.243Z,25.55
2018-09-14T00:01:26.204Z,25.53
2018-09-14T00:03:19.135Z,25.48
2018-09-14T00:04:19.135Z,25.63
2018-09-14T00:06:12.070Z,25.63
2018-09-14T00:07:12.047Z,25.53
2018-09-14T00:09:04.994Z,25.58
2018-09-14T00:10:05.022Z,25.53
2018-09-14T00:11:57.894Z,25.46
2018-09-14T00:12:57.893Z,25.53
2018-09-14T00:14:50.838Z,25.54
2018-09-14T00:15:50.810Z,25.54
2018-09-14T00:17:43.735Z,25.47
2018-09-14T00:18:43.730Z,25.53
2018-09-14T00:20:36.684Z,25.53
2018-09-14T00:21:36.666Z,25.51
2018-09-14T00:23:29.602Z,25.54
2018-09-14T00:24:29.581Z,25.55
2018-09-14T00:26:22.501Z,25.55
2018-09-14T00:27:22.501Z,25.48
2018-09-14T00:29:15.448Z,25.51
2018-09-14T00:30:15.443Z,25.50
2018-09-14T00:32:08.348Z,25.48
2018-09-14T00:33:08.351Z,25.47
2018-09-14T00:35:01.287Z,25.53
2018-09-14T00:36:01.266Z,25.50
2018-09-14T00:37:54.192Z,25.51
2018-09-14T00:38:54.188Z,25.48
2018-09-14T00:40:47.152Z,25.53
2018-09-14T00:41:47.130Z,25.51
2018-09-14T00:43:40.077Z,25.50
2018-09-14T00:44:40.057Z,25.50
2018-09-14T00:46:32.989Z,25.50
2018-09-14T00:47:32.995Z,25.48
2018-09-14T00:49:25.939Z,25.51
2018-09-14T00:50:25.917Z,25.47
2018-09-14T00:52:18.885Z,25.51
2018-09-14T00:53:18.838Z,25.47
2018-09-14T00:55:11.786Z,25.51
2018-09-14T00:56:11.761Z,25.44
2018-09-14T00:58:04.700Z,25.50
2018-09-14T00:59:04.684Z,25.41
2018-09-14T01:00:57.600Z,25.46
2018-09-14T01:01:57.598Z,25.48
2018-09-14T01:03:50.539Z,25.41
2018-09-14T01:04:50.515Z,25.47
2018-09-14T01:06:43.438Z,25.38
2018-09-14T01:07:43.437Z,25.47
2018-09-14T01:09:36.380Z,25.47
2018-09-14T01:10:36.353Z,25.47
2018-09-14T01:12:29.283Z,25.44
2018-09-14T01:13:29.280Z,25.51
2018-09-14T01:15:22.219Z,25.46
2018-09-14T01:16:22.202Z,25.53
2018-09-14T01:18:15.136Z,25.48
2018-09-14T01:19:15.112Z,25.46
2018-09-14T01:21:08.034Z,25.47
2018-09-14T01:22:08.034Z,25.44
2018-09-14T01:24:00.976Z,25.43
2018-09-14T01:25:00.953Z,25.48
2018-09-14T01:26:53.867Z,25.44
2018-09-14T01:27:53.868Z,25.47
2018-09-14T01:29:46.810Z,25.44
2018-09-14T01:30:46.784Z,25.48
2018-09-14T01:32:39.714Z,25.47
2018-09-14T01:33:39.710Z,25.50
2018-09-14T01:35:32.650Z,25.48
2018-09-14T01:36:32.630Z,25.44
2018-09-14T01:38:25.573Z,25.47
2018-09-14T01:39:25.545Z,25.44
2018-09-14T01:41:18.465Z,25.40
2018-09-14T01:42:18.467Z,25.40
2018-09-14T01:44:11.407Z,25.41
2018-09-14T01:45:11.384Z,25.29
2018-09-14T01:47:04.303Z,25.38
2018-09-14T01:48:04.303Z,25.40
2018-09-14T01:49:57.242Z,25.40
2018-09-14T01:50:57.231Z,25.43
2018-09-14T01:52:50.162Z,25.41
2018-09-14T01:53:50.141Z,25.40
2018-09-14T01:55:43.059Z,25.40
2018-09-14T01:56:43.056Z,25.44
2018-09-14T01:58:36.006Z,25.36
2018-09-14T01:59:35.982Z,25.38
2018-09-14T02:01:28.899Z,25.28
2018-09-14T02:02:28.899Z,25.43
2018-09-14T02:04:21.851Z,25.38
2018-09-14T02:05:21.818Z,25.41
2018-09-14T02:07:14.737Z,25.31
2018-09-14T02:08:14.732Z,25.38
2018-09-14T02:10:07.705Z,25.46
2018-09-14T02:11:07.681Z,25.36
2018-09-14T02:13:00.619Z,25.36
2018-09-14T02:14:00.598Z,25.29
2018-09-14T02:15:53.513Z,25.28
2018-09-14T02:16:53.513Z,25.28
2018-09-14T02:18:46.455Z,25.35
2018-09-14T02:19:46.431Z,25.33
2018-09-14T02:21:39.327Z,25.31
2018-09-14T02:22:39.316Z,25.29
2018-09-14T02:24:32.263Z,25.35
2018-09-14T02:25:32.296Z,25.33
2018-09-14T02:27:25.177Z,25.31
2018-09-14T02:28:25.157Z,25.28
2018-09-14T02:30:18.102Z,25.26
2018-09-14T02:31:18.072Z,25.28
2018-09-14T02:33:11.009Z,25.26
2018-09-14T02:34:10.987Z,25.32
2018-09-14T02:36:03.877Z,25.36
2018-09-14T02:37:03.876Z,25.33
2018-09-14T02:38:56.809Z,25.21
2018-09-14T02:39:56.791Z,25.25
2018-09-14T02:41:49.675Z,25.26
2018-09-14T02:42:49.677Z,25.25
2018-09-14T02:44:42.615Z,25.25
2018-09-14T02:45:42.596Z,25.33
2018-09-14T02:47:35.506Z,25.18
2018-09-14T02:48:35.480Z,25.28
2018-09-14T02:50:28.398Z,25.32
2018-09-14T02:51:28.397Z,25.32
2018-09-14T02:53:21.302Z,25.26
2018-09-14T02:54:21.282Z,25.16
2018-09-14T02:56:14.199Z,25.22
2018-09-14T02:57:14.196Z,25.26
2018-09-14T02:59:07.106Z,25.31
2018-09-14T03:00:07.145Z,25.22
2018-09-14T03:02:00.024Z,25.28
2018-09-14T03:03:00.001Z,25.31
2018-09-14T03:04:52.918Z,25.29
2018-09-14T03:05:52.887Z,25.11
2018-09-14T03:07:45.833Z,25.17
2018-09-14T03:08:45.810Z,25.17
2018-09-14T03:10:38.697Z,25.28
2018-09-14T03:11:38.694Z,25.14
2018-09-14T03:13:31.634Z,25.13
2018-09-14T03:14:31.613Z,25.11
2018-09-14T03:16:24.581Z,25.17
2018-09-14T03:17:24.533Z,25.11
2018-09-14T03:19:17.480Z,25.26
2018-09-14T03:20:17.459Z,25.14
2018-09-14T03:22:10.428Z,25.21
2018-09-14T03:23:10.342Z,25.16
2018-09-14T03:25:03.264Z,25.21
2018-09-14T03:26:03.262Z,25.14
2018-09-14T03:27:56.172Z,25.21
2018-09-14T03:28:56.168Z,25.14
2018-09-14T03:30:49.071Z,25.17
2018-09-14T03:31:49.066Z,25.21
2018-09-14T03:33:42.008Z,25.25
2018-09-14T03:34:41.990Z,25.17
2018-09-14T03:36:34.906Z,25.17
2018-09-14T03:37:34.904Z,25.13
2018-09-14T03:39:27.853Z,25.22
2018-09-14T03:40:27.829Z,25.22
2018-09-14T03:42:20.775Z,25.10
2018-09-14T03:43:20.752Z,25.14
2018-09-14T03:45:13.668Z,25.14
2018-09-14T03:46:13.665Z,25.11
2018-09-14T03:48:06.613Z,25.21
2018-09-14T03:49:06.590Z,25.11
2018-09-14T03:50:59.476Z,25.10
2018-09-14T03:51:59.477Z,25.10
2018-09-14T03:53:52.427Z,25.07
2018-09-14T03:54:52.399Z,25.16
2018-09-14T03:56:45.346Z,25.16
2018-09-14T03:57:45.324Z,25.17
2018-09-14T03:59:38.239Z,25.13
2018-09-14T04:00:38.237Z,25.18
2018-09-14T04:02:31.188Z,25.08
2018-09-14T04:03:31.165Z,25.08
2018-09-14T04:05:24.093Z,25.13
2018-09-14T04:06:24.103Z,25.22
2018-09-14T04:08:17.035Z,25.14
2018-09-14T04:09:17.010Z,25.11
2018-09-14T04:11:09.932Z,25.14
2018-09-14T04:12:09.923Z,25.11
2018-09-14T04:14:02.846Z,25.10
2018-09-14T04:15:02.828Z,25.11
2018-09-14T04:16:55.763Z,25.11
2018-09-14T04:17:55.735Z,25.08
2018-09-14T04:19:48.620Z,25.07
2018-09-14T04:20:48.635Z,25.11
2018-09-14T04:22:41.586Z,25.08
2018-09-14T04:23:41.627Z,25.04
2018-09-14T04:25:34.455Z,25.11
2018-09-14T04:26:34.449Z,25.11
2018-09-14T04:28:27.391Z,25.08
2018-09-14T04:29:27.370Z,25.08
2018-09-14T04:31:20.308Z,25.08
2018-09-14T04:32:20.285Z,25.11
2018-09-14T04:34:13.246Z,25.10
2018-09-14T04:35:13.244Z,25.11
2018-09-14T04:37:06.211Z,25.06
2018-09-14T04:38:06.190Z,25.03
2018-09-14T04:39:59.119Z,25.10
2018-09-14T04:40:59.149Z,25.08
2018-09-14T04:42:52.115Z,24.99
2018-09-14T04:43:52.092Z,25.04
2018-09-14T04:45:45.005Z,25.03
2018-09-14T04:46:45.005Z,25.04
2018-09-14T04:48:37.959Z,25.06
2018-09-14T04:49:37.935Z,25.06
2018-09-14T04:51:30.935Z,25.06
2018-09-14T04:52:30.817Z,25.08
2018-09-14T04:54:23.713Z,25.06
2018-09-14T04:55:23.724Z,25.08
2018-09-14T04:57:16.705Z,25.07
2018-09-14T04:58:16.635Z,25.17
2018-09-14T05:00:09.537Z,25.10
2018-09-14T05:01:09.539Z,25.08
2018-09-14T05:03:02.500Z,25.08
2018-09-14T05:04:02.457Z,25.07
2018-09-14T05:05:55.399Z,25.13
2018-09-14T05:06:55.380Z,25.08
2018-09-14T05:08:48.315Z,25.13
2018-09-14T05:09:48.318Z,25.07
2018-09-14T05:11:41.257Z,25.07
2018-09-14T05:12:41.231Z,25.10
2018-09-14T05:14:34.153Z,25.11
2018-09-14T05:15:34.149Z,25.14
2018-09-14T05:17:27.095Z,25.16
2018-09-14T05:18:27.082Z,25.07
2018-09-14T05:20:20.715Z,25.10
2018-09-14T05:21:20.715Z,25.07
2018-09-14T05:23:14.063Z,25.11
2018-09-14T05:24:14.092Z,25.10
2018-09-14T05:26:07.007Z,25.07
2018-09-14T05:27:06.985Z,25.10
2018-09-14T05:28:59.903Z,25.08
2018-09-14T05:29:59.902Z,25.08
2018-09-14T05:31:52.877Z,25.07
2018-09-14T05:32:52.832Z,25.06
2018-09-14T05:34:45.775Z,25.07
2018-09-14T05:35:45.746Z,25.16
2018-09-14T05:37:38.694Z,25.11
2018-09-14T05:38:38.663Z,25.13
2018-09-14T05:40:31.610Z,25.10
2018-09-14T05:41:31.581Z,25.14
2018-09-14T05:43:24.557Z,25.07
2018-09-14T05:44:24.505Z,25.07
2018-09-14T05:46:17.445Z,25.07
2018-09-14T05:47:17.424Z,25.07
2018-09-14T05:49:10.348Z,25.11
2018-09-14T05:50:10.327Z,25.11
2018-09-14T05:52:03.273Z,25.16
2018-09-14T05:53:03.253Z,25.10
2018-09-14T05:54:56.163Z,25.11
2018-09-14T05:55:56.164Z,25.11
2018-09-14T05:57:49.115Z,25.08
2018-09-14T05:58:49.085Z,25.14
2018-09-14T06:00:42.030Z,25.14
2018-09-14T06:01:42.019Z,25.22
2018-09-14T06:03:34.928Z,25.22
2018-09-14T06:04:34.926Z,25.14
2018-09-14T06:06:27.883Z,25.14
2018-09-14T06:07:27.847Z,25.18
2018-09-14T06:09:20.776Z,25.17
2018-09-14T06:10:20.762Z,25.25
2018-09-14T06:12:13.713Z,25.11
2018-09-14T06:13:13.684Z,25.25
2018-09-14T06:15:06.625Z,25.14
2018-09-14T06:16:06.623Z,25.14
2018-09-14T06:17:59.524Z,25.25
2018-09-14T06:18:59.521Z,25.16
2018-09-14T06:20:52.468Z,25.31
2018-09-14T06:21:52.444Z,25.25
2018-09-14T06:23:45.349Z,25.25
2018-09-14T06:24:45.343Z,25.26
2018-09-14T06:26:38.278Z,25.22
2018-09-14T06:27:38.253Z,25.17
2018-09-14T06:29:31.142Z,25.28
2018-09-14T06:30:31.195Z,25.32
2018-09-14T06:32:24.086Z,25.35
2018-09-14T06:33:24.063Z,25.31
2018-09-14T06:35:17.003Z,25.26
2018-09-14T06:36:16.980Z,25.29
2018-09-14T06:38:10.008Z,25.40
2018-09-14T06:39:09.896Z,25.40
2018-09-14T06:41:02.871Z,25.44
2018-09-14T06:42:02.812Z,25.44
2018-09-14T06:43:55.732Z,25.43
2018-09-14T06:44:55.738Z,25.51
2018-09-14T06:46:48.670Z,25.48
2018-09-14T06:47:48.647Z,25.48
2018-09-14T06:49:41.576Z,25.51
2018-09-14T06:50:41.572Z,25.46
2018-09-14T06:52:34.509Z,25.51
2018-09-14T06:53:34.496Z,25.43
2018-09-14T06:55:27.427Z,25.48
2018-09-14T06:56:27.403Z,25.47
2018-09-14T06:58:20.325Z,25.48
2018-09-14T06:59:20.324Z,25.46
2018-09-14T07:01:13.268Z,25.50
2018-09-14T07:02:13.252Z,25.50
2018-09-14T07:04:06.162Z,25.54
2018-09-14T07:05:06.156Z,25.48
2018-09-14T07:06:59.098Z,25.53
2018-09-14T07:07:59.074Z,25.53
2018-09-14T07:09:52.032Z,25.53
2018-09-14T07:10:51.987Z,25.53
2018-09-14T07:12:44.909Z,25.54
2018-09-14T07:13:44.903Z,25.53
2018-09-14T07:15:37.863Z,25.51
2018-09-14T07:16:37.838Z,25.50
2018-09-14T07:18:30.756Z,25.44
2018-09-14T07:19:30.756Z,25.48
2018-09-14T07:21:23.699Z,25.44
2018-09-14T07:22:23.732Z,25.48
2018-09-14T07:24:16.689Z,25.47
2018-09-14T07:25:16.595Z,25.44
2018-09-14T07:27:09.571Z,25.43
2018-09-14T07:28:09.552Z,25.48
2018-09-14T07:30:02.482Z,25.55
2018-09-14T07:31:02.444Z,25.53
2018-09-14T07:32:55.375Z,25.55
2018-09-14T07:33:55.372Z,25.50
2018-09-14T07:35:48.317Z,25.60
2018-09-14T07:36:48.299Z,25.54
2018-09-14T07:38:41.219Z,25.55
2018-09-14T07:39:41.220Z,25.60
2018-09-14T07:41:34.124Z,25.63
2018-09-14T07:42:34.106Z,25.62
2018-09-14T07:44:27.044Z,25.68
2018-09-14T07:45:27.021Z,25.63
2018-09-14T07:47:19.941Z,25.66
2018-09-14T07:48:20.024Z,25.69
2018-09-14T07:50:12.885Z,25.55
2018-09-14T07:51:12.862Z,25.43
2018-09-14T07:53:05.780Z,25.11
2018-09-14T07:54:05.782Z,25.13
2018-09-14T07:55:58.728Z,25.32
2018-09-14T07:56:58.698Z,25.46
2018-09-14T07:58:51.618Z,25.55
2018-09-14T07:59:51.617Z,25.59
2018-09-14T08:01:44.561Z,25.68
2018-09-14T08:02:44.536Z,25.70
2018-09-14T08:04:37.476Z,25.91
2018-09-14T08:05:37.451Z,25.87
2018-09-14T08:07:30.374Z,25.83
2018-09-14T08:08:30.374Z,25.69
2018-09-14T08:10:23.316Z,25.51
2018-09-14T08:11:23.292Z,25.44
2018-09-14T08:13:16.288Z,25.60
2018-09-14T08:14:16.215Z,25.54
2018-09-14T08:16:09.159Z,25.63
2018-09-14T08:17:09.132Z,25.73
2018-09-14T08:19:02.076Z,25.72
2018-09-14T08:20:02.109Z,25.80
2018-09-14T08:21:55.053Z,25.83
2018-09-14T08:22:54.977Z,25.93
2018-09-14T08:24:47.918Z,25.91
2018-09-14T08:25:47.890Z,25.93
2018-09-14T08:27:40.838Z,26.22
2018-09-14T08:28:40.808Z,26.07
2018-09-14T08:30:33.753Z,26.29
2018-09-14T08:31:33.727Z,26.22
2018-09-14T08:33:26.672Z,26.22
2018-09-14T08:34:26.656Z,26.23
2018-09-14T08:36:19.592Z,26.18
2018-09-14T08:37:19.568Z,26.15
2018-09-14T08:39:12.529Z,26.23
2018-09-14T08:40:12.499Z,26.34
2018-09-14T08:42:05.429Z,26.26
2018-09-14T08:43:05.426Z,26.29
2018-09-14T08:44:58.366Z,26.22
2018-09-14T08:45:58.345Z,26.26
2018-09-14T08:47:51.297Z,26.33
2018-09-14T08:48:51.266Z,26.31
2018-09-14T08:50:44.229Z,26.43
2018-09-14T08:51:44.184Z,26.43
2018-09-14T08:53:37.181Z,26.36
2018-09-14T08:54:37.102Z,26.44
2018-09-14T08:56:30.023Z,26.59
2018-09-14T08:57:30.023Z,26.71
2018-09-14T08:59:22.965Z,26.80
2018-09-14T09:00:22.945Z,26.92
2018-09-14T09:02:15.862Z,27.14
2018-09-14T09:03:15.862Z,26.70
2018-09-14T09:05:08.766Z,26.25
2018-09-14T09:06:08.743Z,26.56
2018-09-14T09:08:01.684Z,26.89
2018-09-14T09:09:01.690Z,26.93
2018-09-14T09:10:54.624Z,27.26
2018-09-14T09:11:54.601Z,27.32
2018-09-14T09:13:47.541Z,27.29
2018-09-14T09:14:47.520Z,27.33
2018-09-14T09:16:40.440Z,27.44
2018-09-14T09:17:40.502Z,27.45
2018-09-14T09:19:33.417Z,27.59
2018-09-14T09:20:33.358Z,27.63
2018-09-14T09:22:26.278Z,27.71
2018-09-14T09:23:26.298Z,27.74
2018-09-14T09:25:19.763Z,27.67
2018-09-14T09:26:19.208Z,27.74
2018-09-14T09:28:12.141Z,27.86
2018-09-14T09:29:12.116Z,27.82
2018-09-14T09:31:05.035Z,27.78
2018-09-14T09:32:05.038Z,27.75
2018-09-14T09:33:57.987Z,27.65
2018-09-14T09:34:58.009Z,27.58
2018-09-14T09:36:50.871Z,27.21
2018-09-14T09:37:50.884Z,27.11
2018-09-14T09:39:43.811Z,27.07
2018-09-14T09:40:43.816Z,27.20
2018-09-14T09:42:36.722Z,27.48
2018-09-14T09:43:36.940Z,27.54
2018-09-14T09:45:29.758Z,27.87
2018-09-14T09:46:29.666Z,27.80
2018-09-14T09:48:22.666Z,27.89
2018-09-14T09:49:22.636Z,28.04
2018-09-14T09:51:15.568Z,28.11
2018-09-14T09:52:15.536Z,28.17
2018-09-14T09:54:08.475Z,28.22
2018-09-14T09:55:08.452Z,28.23
2018-09-14T09:57:01.376Z,28.25
2018-09-14T09:58:01.371Z,28.19
2018-09-14T09:59:54.331Z,28.08
2018-09-14T10:00:54.298Z,28.11
2018-09-14T10:02:47.236Z,28.26
2018-09-14T10:03:47.285Z,28.26
2018-09-14T10:05:40.150Z,28.11
2018-09-14T10:06:40.154Z,28.02
2018-09-14T10:08:33.108Z,28.02
2018-09-14T10:09:33.088Z,28.07
2018-09-14T10:11:26.006Z,28.05
2018-09-14T10:12:26.005Z,28.08
2018-09-14T10:14:18.948Z,27.89
2018-09-14T10:15:18.928Z,27.83
2018-09-14T10:17:11.877Z,27.75
2018-09-14T10:18:11.893Z,27.70
2018-09-14T10:20:04.902Z,27.49
2018-09-14T10:21:04.866Z,27.35
2018-09-14T10:22:57.760Z,27.35
2018-09-14T10:23:57.733Z,27.48
2018-09-14T10:25:50.664Z,27.55
2018-09-14T10:26:50.679Z,27.65
2018-09-14T10:28:43.639Z,27.52
2018-09-14T10:29:43.596Z,27.33
2018-09-14T10:31:36.480Z,27.37
2018-09-14T10:32:36.480Z,27.20
2018-09-14T10:34:29.426Z,27.30
2018-09-14T10:35:29.404Z,27.42
2018-09-14T10:37:22.356Z,27.59
2018-09-14T10:38:22.334Z,27.77
2018-09-14T10:40:15.274Z,27.75
2018-09-14T10:41:15.273Z,27.87
2018-09-14T10:43:08.303Z,27.82
2018-09-14T10:44:08.170Z,27.74
2018-09-14T10:46:01.146Z,27.89
2018-09-14T10:47:01.140Z,27.98
2018-09-14T10:48:54.139Z,28.05
2018-09-14T10:49:54.078Z,28.12
2018-09-14T10:51:46.986Z,28.04
2018-09-14T10:52:46.993Z,28.20
2018-09-14T10:54:39.941Z,28.11
2018-09-14T10:55:39.911Z,27.93
2018-09-14T10:57:32.855Z,27.95
2018-09-14T10:58:32.831Z,28.05
2018-09-14T11:00:25.754Z,27.55
2018-09-14T11:01:25.754Z,27.51
2018-09-14T11:03:18.699Z,27.64
2018-09-14T11:04:18.700Z,27.55
2018-09-14T11:06:11.595Z,27.71
2018-09-14T11:07:11.596Z,27.75
2018-09-14T11:09:04.551Z,27.85
2018-09-14T11:10:04.526Z,27.95
2018-09-14T11:11:57.467Z,27.95
2018-09-14T11:12:57.500Z,28.00
2018-09-14T11:14:50.363Z,28.12
2018-09-14T11:15:50.363Z,28.14
2018-09-14T11:17:43.283Z,28.23
2018-09-14T11:18:43.317Z,28.23
2018-09-14T11:20:36.281Z,28.25
2018-09-14T11:21:36.167Z,28.27
2018-09-14T11:23:29.639Z,28.17
2018-09-14T11:24:29.159Z,28.17
2018-09-14T11:26:22.039Z,28.04
2018-09-14T11:27:22.026Z,28.15
2018-09-14T11:29:15.006Z,28.08
2018-09-14T11:30:14.955Z,27.90
2018-09-14T11:32:07.901Z,27.70
2018-09-14T11:33:07.877Z,27.78
2018-09-14T11:35:00.805Z,27.85
2018-09-14T11:36:00.799Z,27.93
2018-09-14T11:37:53.852Z,27.87
2018-09-14T11:38:53.718Z,27.93
2018-09-14T11:40:46.638Z,27.89
2018-09-14T11:41:46.638Z,27.86
2018-09-14T11:43:39.609Z,27.77
2018-09-14T11:44:39.594Z,27.82
2018-09-14T11:46:32.559Z,27.85
2018-09-14T11:47:32.509Z,27.82
2018-09-14T11:49:25.426Z,27.74
2018-09-14T11:50:25.428Z,27.77
2018-09-14T11:52:18.374Z,27.74
2018-09-14T11:53:18.355Z,27.64
2018-09-14T11:55:11.281Z,27.60
2018-09-14T11:56:11.283Z,27.63
2018-09-14T11:58:04.218Z,27.63
2018-09-14T11:59:04.198Z,27.60
2018-09-14T12:00:57.130Z,27.71
2018-09-14T12:01:57.116Z,27.70
2018-09-14T12:03:50.072Z,27.71
2018-09-14T12:04:50.048Z,27.70
2018-09-14T12:06:42.990Z,27.71
2018-09-14T12:07:42.967Z,27.68
2018-09-14T12:09:35.884Z,27.73
2018-09-14T12:10:35.888Z,27.78
2018-09-14T12:12:28.831Z,27.71
2018-09-14T12:13:28.808Z,27.77
2018-09-14T12:15:21.755Z,27.74
2018-09-14T12:16:21.739Z,27.83
2018-09-14T12:18:14.686Z,27.77
2018-09-14T12:19:14.662Z,27.74
2018-09-14T12:21:07.603Z,27.87
2018-09-14T12:22:07.626Z,27.92
2018-09-14T12:24:00.501Z,27.96
2018-09-14T12:25:00.499Z,28.07
2018-09-14T12:26:53.442Z,28.19
2018-09-14T12:27:53.420Z,28.10
2018-09-14T12:29:46.412Z,28.15
2018-09-14T12:30:46.386Z,28.12
2018-09-14T12:32:39.323Z,28.19
2018-09-14T12:33:39.304Z,28.22
2018-09-14T12:35:32.269Z,28.10
2018-09-14T12:36:32.223Z,28.08
2018-09-14T12:38:25.165Z,28.07
2018-09-14T12:39:25.149Z,28.11
2018-09-14T12:41:18.099Z,28.12
2018-09-14T12:42:18.070Z,28.07
2018-09-14T12:44:11.000Z,27.63
2018-09-14T12:45:11.018Z,27.39
2018-09-14T12:47:03.938Z,27.55
2018-09-14T12:48:03.918Z,27.54
2018-09-14T12:49:56.870Z,27.40
2018-09-14T12:50:56.835Z,27.47
2018-09-14T12:52:49.783Z,27.25
2018-09-14T12:53:49.767Z,27.26
2018-09-14T12:55:42.708Z,27.00
2018-09-14T12:56:42.686Z,27.26
2018-09-14T12:58:35.613Z,27.36
2018-09-14T12:59:35.608Z,27.26
2018-09-14T13:01:28.555Z,27.03
2018-09-14T13:02:28.538Z,26.38
2018-09-14T13:04:21.524Z,26.83
2018-09-14T13:05:21.477Z,26.77
2018-09-14T13:07:14.419Z,26.37
2018-09-14T13:08:14.413Z,26.63
2018-09-14T13:10:07.344Z,26.65
2018-09-14T13:11:07.345Z,26.40
2018-09-14T13:13:00.283Z,26.41
2018-09-14T13:14:00.265Z,26.31
2018-09-14T13:15:53.200Z,26.09
2018-09-14T13:16:53.187Z,26.23
2018-09-14T13:18:46.107Z,26.38
2018-09-14T13:19:46.098Z,26.40
2018-09-14T13:21:39.058Z,26.43
2018-09-14T13:22:39.025Z,26.59
2018-09-14T13:24:31.946Z,26.74
2018-09-14T13:25:31.940Z,26.84
2018-09-14T13:27:24.939Z,26.84
2018-09-14T13:28:24.861Z,26.81
2018-09-14T13:30:17.788Z,26.85
2018-09-14T13:31:17.790Z,26.77
2018-09-14T13:33:10.743Z,26.88
2018-09-14T13:34:10.706Z,26.80
2018-09-14T13:36:03.641Z,26.80
2018-09-14T13:37:03.629Z,26.89
2018-09-14T13:38:56.641Z,26.95
2018-09-14T13:39:56.617Z,26.85
2018-09-14T13:41:49.592Z,26.99
2018-09-14T13:42:49.573Z,27.05
2018-09-14T13:44:42.488Z,27.14
2018-09-14T13:45:42.468Z,27.08
2018-09-14T13:47:35.447Z,27.17
2018-09-14T13:48:35.389Z,27.29
2018-09-14T13:50:28.309Z,27.26
2018-09-14T13:51:28.842Z,27.21
2018-09-14T13:53:21.263Z,27.36
2018-09-14T13:54:21.242Z,27.30
2018-09-14T13:56:14.189Z,27.33
2018-09-14T13:57:14.161Z,27.29
2018-09-14T13:59:07.072Z,27.39
2018-09-14T14:00:07.051Z,27.35
2018-09-14T14:01:59.994Z,27.30
2018-09-14T14:02:59.971Z,27.29
2018-09-14T14:04:52.901Z,27.20
2018-09-14T14:05:52.898Z,27.22
2018-09-14T14:07:45.838Z,27.14
2018-09-14T14:08:45.814Z,27.29
2018-09-14T14:10:38.743Z,27.29
2018-09-14T14:11:38.737Z,27.33
2018-09-14T14:13:31.712Z,27.30
2018-09-14T14:14:31.657Z,27.32
2018-09-14T14:16:24.700Z,27.22
2018-09-14T14:17:24.691Z,27.26
2018-09-14T14:19:17.552Z,27.21
2018-09-14T14:20:17.551Z,27.22
2018-09-14T14:22:10.499Z,27.25
2018-09-14T14:23:10.545Z,27.21
2018-09-14T14:25:03.482Z,27.18
2018-09-14T14:26:03.470Z,27.21
2018-09-14T14:27:56.430Z,27.25
2018-09-14T14:28:56.392Z,27.18
2018-09-14T14:30:49.320Z,27.12
2018-09-14T14:31:49.321Z,27.11
2018-09-14T14:33:42.267Z,27.10
2018-09-14T14:34:42.247Z,27.02
2018-09-14T14:36:35.214Z,26.99
2018-09-14T14:37:35.161Z,27.10
2018-09-14T14:39:28.108Z,27.14
2018-09-14T14:40:28.084Z,27.10
2018-09-14T14:42:21.066Z,27.10
2018-09-14T14:43:21.046Z,27.08
2018-09-14T14:45:13.938Z,27.03
2018-09-14T14:46:13.962Z,26.99
2018-09-14T14:48:06.876Z,26.97
2018-09-14T14:49:06.931Z,26.97
2018-09-14T14:50:59.791Z,27.00
2018-09-14T14:51:59.783Z,27.00
2018-09-14T14:53:52.706Z,26.96
2018-09-14T14:54:52.699Z,26.99
2018-09-14T14:56:45.646Z,26.99
2018-09-14T14:57:45.612Z,27.07
2018-09-14T14:59:38.618Z,26.99
2018-09-14T15:00:38.619Z,27.02
2018-09-14T15:02:31.565Z,26.97
2018-09-14T15:03:31.541Z,26.93
2018-09-14T15:05:24.477Z,27.03
2018-09-14T15:06:24.467Z,27.02
2018-09-14T15:08:17.410Z,27.03
2018-09-14T15:09:17.389Z,26.97
2018-09-14T15:11:10.333Z,26.93
2018-09-14T15:12:10.343Z,26.97
2018-09-14T15:14:03.236Z,26.96
2018-09-14T15:15:03.239Z,26.89
2018-09-14T15:16:56.205Z,26.90
2018-09-14T15:17:56.156Z,26.85
2018-09-14T15:19:49.072Z,26.85
2018-09-14T15:20:49.088Z,26.84
2018-09-14T15:22:42.033Z,26.85
2018-09-14T15:23:41.997Z,26.78
2018-09-14T15:25:34.940Z,26.80
2018-09-14T15:26:34.919Z,26.83
2018-09-14T15:28:27.840Z,26.81
2018-09-14T15:29:27.841Z,26.81
2018-09-14T15:31:20.781Z,26.83
2018-09-14T15:32:20.757Z,26.80
2018-09-14T15:34:13.688Z,26.75
2018-09-14T15:35:13.686Z,26.85
2018-09-14T15:37:06.647Z,26.85
2018-09-14T15:38:06.620Z,26.84
2018-09-14T15:39:59.539Z,26.84
2018-09-14T15:40:59.540Z,26.84
2018-09-14T15:42:52.485Z,26.74
2018-09-14T15:43:52.469Z,26.74
2018-09-14T15:45:45.403Z,26.73
2018-09-14T15:46:45.389Z,26.73
2018-09-14T15:48:38.299Z,26.70
2018-09-14T15:49:38.320Z,26.73
2018-09-14T15:51:31.216Z,26.74
2018-09-14T15:52:31.197Z,26.70
2018-09-14T15:54:24.135Z,26.65
2018-09-14T15:55:24.121Z,26.70
2018-09-14T15:57:17.011Z,26.66
2018-09-14T15:58:16.989Z,26.70
2018-09-14T16:00:10.631Z,26.59
2018-09-14T16:01:09.938Z,26.70
2018-09-14T16:03:02.863Z,26.65
2018-09-14T16:04:02.861Z,26.53
2018-09-14T16:05:55.839Z,26.65
2018-09-14T16:06:55.819Z,26.56
2018-09-14T16:08:48.773Z,26.53
2018-09-14T16:09:48.740Z,26.56
2018-09-14T16:11:41.710Z,26.53
2018-09-14T16:12:41.662Z,26.59
2018-09-14T16:14:34.616Z,26.52
2018-09-14T16:15:34.596Z,26.58
2018-09-14T16:17:27.564Z,26.48
2018-09-14T16:18:27.533Z,26.40
2018-09-14T16:20:20.520Z,26.41
2018-09-14T16:21:20.543Z,26.31
2018-09-14T16:23:13.458Z,26.37
2018-09-14T16:24:13.458Z,26.34
2018-09-14T16:26:06.414Z,26.34
2018-09-14T16:27:06.393Z,26.44
2018-09-14T16:28:59.315Z,26.22
2018-09-14T16:29:59.312Z,26.23
2018-09-14T16:31:52.333Z,26.25
2018-09-14T16:32:52.254Z,26.31
2018-09-14T16:34:45.176Z,26.21
2018-09-14T16:35:45.151Z,26.25
2018-09-14T16:37:38.078Z,26.36
2018-09-14T16:38:38.081Z,26.25
2018-09-14T16:40:31.051Z,26.26
2018-09-14T16:41:31.035Z,26.33
2018-09-14T16:43:23.945Z,26.26
2018-09-14T16:44:23.945Z,26.31
2018-09-14T16:46:16.888Z,26.22
2018-09-14T16:47:16.866Z,26.19
2018-09-14T16:49:09.811Z,26.29
2018-09-14T16:50:09.809Z,26.26
2018-09-14T16:52:02.752Z,26.22
2018-09-14T16:53:02.734Z,26.15
2018-09-14T16:54:55.675Z,26.15
2018-09-14T16:55:55.651Z,26.05
2018-09-14T16:57:48.578Z,25.99
2018-09-14T16:58:48.576Z,26.09
2018-09-14T17:00:41.547Z,26.09
2018-09-14T17:01:41.493Z,26.05
2018-09-14T17:03:34.413Z,26.00
2018-09-14T17:04:34.419Z,25.90
2018-09-14T17:06:27.364Z,25.95
2018-09-14T17:07:27.340Z,25.98
2018-09-14T17:09:20.284Z,25.91
2018-09-14T17:10:20.258Z,26.00
2018-09-14T17:12:13.206Z,26.00
2018-09-14T17:13:13.202Z,25.98
2018-09-14T17:15:06.143Z,25.96
2018-09-14T17:16:06.122Z,25.93
2018-09-14T17:17:59.046Z,25.91
2018-09-14T17:18:59.052Z,25.91
2018-09-14T17:20:51.993Z,25.84
2018-09-14T17:21:51.961Z,25.90
2018-09-14T17:23:44.910Z,25.87
2018-09-14T17:24:44.894Z,25.88
2018-09-14T17:26:37.833Z,25.80
2018-09-14T17:27:37.819Z,25.84
2018-09-14T17:29:30.749Z,25.84
2018-09-14T17:30:30.724Z,25.84
2018-09-14T17:32:23.644Z,25.77
2018-09-14T17:33:23.643Z,25.81
2018-09-14T17:35:16.585Z,25.75
2018-09-14T17:36:16.578Z,25.70
2018-09-14T17:38:09.488Z,25.69
2018-09-14T17:39:09.528Z,25.68
2018-09-14T17:41:02.443Z,25.69
2018-09-14T17:42:02.397Z,25.73
2018-09-14T17:43:55.322Z,25.68
2018-09-14T17:44:55.317Z,25.70
2018-09-14T17:46:48.274Z,25.65
2018-09-14T17:47:48.247Z,25.66
2018-09-14T17:49:41.377Z,25.63
2018-09-14T17:50:41.361Z,25.65
2018-09-14T17:52:34.284Z,25.65
2018-09-14T17:53:34.281Z,25.62
2018-09-14T17:55:27.257Z,25.65
2018-09-14T17:56:27.203Z,25.65
2018-09-14T17:58:20.127Z,25.66
2018-09-14T17:59:20.120Z,25.66
2018-09-14T18:01:13.064Z,25.66
2018-09-14T18:02:13.044Z,25.55
2018-09-14T18:04:05.987Z,25.66
2018-09-14T18:05:05.963Z,25.58
2018-09-14T18:06:58.894Z,25.59
2018-09-14T18:07:58.906Z,25.59
2018-09-14T18:09:51.849Z,25.59
2018-09-14T18:10:51.821Z,25.58
2018-09-14T18:12:44.754Z,25.60
2018-09-14T18:13:44.752Z,25.63
2018-09-14T18:15:37.709Z,25.68
2018-09-14T18:16:37.685Z,25.68
2018-09-14T18:18:30.605Z,25.66
2018-09-14T18:19:30.603Z,25.62
2018-09-14T18:21:23.577Z,25.68
2018-09-14T18:22:23.526Z,25.60
2018-09-14T18:24:16.485Z,25.63
2018-09-14T18:25:16.449Z,25.59
2018-09-14T18:27:09.368Z,25.58
2018-09-14T18:28:09.365Z,25.53
2018-09-14T18:30:02.307Z,25.59
2018-09-14T18:31:02.287Z,25.59
2018-09-14T18:32:55.269Z,25.53